Time;durP1;ratioP1;P1;durP2;ratioP2;P2;SDS_P1;SDS_P2;PMS_P1;PMS_P2;Temp;Humidity;BMP_temperature;BMP_pressure;BME280_temperature;BME280_humidity;BME280_pressure;Samples;Min_cycle;Max_cycle;Signal;HPM_P1;HPM_P2
2022/05/27 00:00:42;;;;;;;;;0.00;0.00;;;;;;;;5079725;28;61817;-74
2022/05/27 00:03:08;;;;;;;;;1.75;0.00;;;;;;;;5079355;28;62625;-74
2022/05/27 00:05:33;;;;;;;;;1.75;0.00;;;;;;;;5079289;28;61796;-74
2022/05/27 00:07:59;;;;;;;;;2.00;1.00;;;;;;;;5079588;28;62370;-74
2022/05/27 00:10:24;;;;;;;;;0.00;0.00;;;;;;;;5079582;28;61968;-74
2022/05/27 00:12:49;;;;;;;;;0.00;0.00;;;;;;;;5078504;28;62189;-75
2022/05/27 00:15:15;;;;;;;;;0.00;0.00;;;;;;;;5079700;28;61935;-74
2022/05/27 00:17:41;;;;;;;;;0.00;0.00;;;;;;;;5062289;28;61928;-75
2022/05/27 00:20:07;;;;;;;;;0.00;0.00;;;;;;;;5081115;28;62103;-74
2022/05/27 00:22:32;;;;;;;;;0.00;0.00;;;;;;;;5082210;28;62617;-74
2022/05/27 00:24:58;;;;;;;;;0.00;0.00;;;;;;;;5065837;28;61730;-74
2022/05/27 00:27:23;;;;;;;;;0.00;0.00;;;;;;;;5082868;28;61980;-75
2022/05/27 00:29:48;;;;;;;;;0.00;0.00;;;;;;;;5083051;28;62081;-74
2022/05/27 00:32:13;;;;;;;;;0.00;0.00;;;;;;;;5082105;28;61956;-74
2022/05/27 00:34:39;;;;;;;;;0.00;0.00;;;;;;;;5090891;27;61828;-74
2022/05/27 00:37:04;;;;;;;;;1.00;0.00;;;;;;;;5126098;27;61829;-74
2022/05/27 00:39:30;;;;;;;;;0.00;0.00;;;;;;;;5125182;27;61720;-73
2022/05/27 00:41:55;;;;;;;;;1.50;0.00;;;;;;;;5125309;27;62046;-74
2022/05/27 00:44:20;;;;;;;;;1.00;0.00;;;;;;;;5126189;27;61907;-74
2022/05/27 00:46:46;;;;;;;;;0.00;0.00;;;;;;;;5124597;27;62116;-74
2022/05/27 00:49:21;;;;;;;;;0.00;0.00;;;;;;;;5126528;27;61900;-75
2022/05/27 00:51:50;;;;;;;;;0.00;0.00;;;;;;;;5125318;27;62986;-74
2022/05/27 00:54:21;;;;;;;;;0.00;0.00;;;;;;;;5124549;27;62101;-74
2022/05/27 00:56:50;;;;;;;;;0.00;0.00;;;;;;;;5124061;27;62145;-74
2022/05/27 00:59:20;;;;;;;;;0.00;0.00;;;;;;;;5126596;27;61948;-74
2022/05/27 01:01:45;;;;;;;;;1.00;0.00;;;;;;;;5124963;27;62830;-74
2022/05/27 01:04:10;;;;;;;;;0.50;0.50;;;;;;;;5125954;27;61775;-74
2022/05/27 01:06:36;;;;;;;;;1.00;1.00;;;;;;;;5125786;27;61771;-74
2022/05/27 01:09:02;;;;;;;;;0.00;0.00;;;;;;;;5124351;27;61721;-74
2022/05/27 01:11:27;;;;;;;;;0.00;0.00;;;;;;;;5125027;27;62766;-74
2022/05/27 01:14:02;;;;;;;;;0.25;0.25;;;;;;;;5124045;27;61824;-75
2022/05/27 01:16:27;;;;;;;;;0.00;0.00;;;;;;;;5125460;27;61932;-75
2022/05/27 01:22:04;;;;;;;;;0.00;0.00;;;;;;;;5125059;27;62323;-74
2022/05/27 01:24:32;;;;;;;;;1.00;0.00;;;;;;;;5061500;28;62151;-75
2022/05/27 01:27:18;;;;;;;;;0.00;0.00;;;;;;;;5061042;28;62190;-74
2022/05/27 01:29:52;;;;;;;;;3.00;0.00;;;;;;;;5061977;28;61952;-75
2022/05/27 01:32:37;;;;;;;;;0.25;0.00;;;;;;;;5059621;28;62928;-75
2022/05/27 01:35:02;;;;;;;;;2.00;0.00;;;;;;;;5044379;28;61926;-75
2022/05/27 01:37:41;;;;;;;;;0.50;0.00;;;;;;;;5061438;28;61979;-74
2022/05/27 01:40:14;;;;;;;;;2.00;0.00;;;;;;;;5061792;28;61762;-74
2022/05/27 01:42:42;;;;;;;;;1.50;0.00;;;;;;;;5043591;28;64024;-74
2022/05/27 01:45:13;;;;;;;;;0.00;0.00;;;;;;;;5061146;28;61839;-75
2022/05/27 01:47:41;;;;;;;;;1.75;0.75;;;;;;;;5044301;28;61874;-75
2022/05/27 01:50:25;;;;;;;;;0.00;0.00;;;;;;;;5061648;28;61906;-74
2022/05/27 01:52:53;;;;;;;;;1.50;0.00;;;;;;;;5060593;28;62027;-75
2022/05/27 01:55:24;;;;;;;;;0.00;0.00;;;;;;;;5061345;28;61786;-75
2022/05/27 01:57:59;;;;;;;;;1.00;0.00;;;;;;;;5060615;28;61898;-74
2022/05/27 02:00:25;;;;;;;;;0.00;0.00;;;;;;;;5046215;27;62119;-74
2022/05/27 02:02:54;;;;;;;;;1.00;0.00;;;;;;;;5124381;27;62617;-75
2022/05/27 02:05:20;;;;;;;;;0.00;0.00;;;;;;;;5124990;27;61739;-75
2022/05/27 02:07:49;;;;;;;;;1.25;0.50;;;;;;;;5124658;27;61903;-75
2022/05/27 02:10:34;;;;;;;;;0.25;0.25;;;;;;;;5125117;27;61809;-75
2022/05/27 02:13:20;;;;;;;;;0.75;0.00;;;;;;;;5123223;27;61875;-74
2022/05/27 02:15:47;;;;;;;;;0.00;0.00;;;;;;;;5123288;27;61895;-75
2022/05/27 02:18:20;;;;;;;;;0.00;0.00;;;;;;;;5124728;27;61675;-74
2022/05/27 02:21:06;;;;;;;;;0.00;0.00;;;;;;;;5125127;27;61959;-75
2022/05/27 02:23:34;;;;;;;;;0.00;0.00;;;;;;;;5123721;27;62957;-75
2022/05/27 02:26:01;;;;;;;;;2.50;0.00;;;;;;;;5122995;27;61680;-75
2022/05/27 02:28:29;;;;;;;;;1.00;0.00;;;;;;;;5124240;27;61906;-74
2022/05/27 02:30:57;;;;;;;;;0.00;0.00;;;;;;;;5124622;27;62103;-74
2022/05/27 02:36:12;;;;;;;;;0.00;0.00;;;;;;;;5124361;27;61939;-75
2022/05/27 02:38:38;;;;;;;;;0.00;0.00;;;;;;;;5123287;27;61986;-74
2022/05/27 02:41:03;;;;;;;;;0.75;0.75;;;;;;;;5124253;27;62141;-74
2022/05/27 02:43:47;;;;;;;;;1.00;1.00;;;;;;;;5122917;27;61902;-74
2022/05/27 02:46:28;;;;;;;;;0.50;0.50;;;;;;;;5124460;27;61749;-74
2022/05/27 02:49:00;;;;;;;;;1.00;1.00;;;;;;;;5124420;27;61641;-74
2022/05/27 02:51:45;;;;;;;;;0.00;0.00;;;;;;;;5123184;27;61740;-74
2022/05/27 02:54:10;;;;;;;;;0.00;0.00;;;;;;;;5123413;27;62633;-75
2022/05/27 02:57:11;;;;;;;;;1.00;1.00;;;;;;;;5124047;27;61789;-75
2022/05/27 02:59:37;;;;;;;;;0.75;0.75;;;;;;;;5060476;28;61983;-74
2022/05/27 03:02:04;;;;;;;;;2.00;1.00;;;;;;;;5043188;28;61790;-75
2022/05/27 03:04:30;;;;;;;;;1.50;1.50;;;;;;;;5042818;28;63813;-74
2022/05/27 03:06:56;;;;;;;;;2.00;0.25;;;;;;;;5043046;28;62093;-74
2022/05/27 03:09:36;;;;;;;;;3.25;0.75;;;;;;;;5043051;28;61726;-74
2022/05/27 03:12:14;;;;;;;;;2.00;1.00;;;;;;;;5059381;28;62027;-74
2022/05/27 03:14:45;;;;;;;;;2.50;2.50;;;;;;;;5042654;28;63714;-74
2022/05/27 03:17:18;;;;;;;;;2.00;1.00;;;;;;;;5059692;28;62019;-74
2022/05/27 03:19:50;;;;;;;;;4.50;1.25;;;;;;;;5059839;28;61705;-74
2022/05/27 03:22:26;;;;;;;;;0.25;0.25;;;;;;;;5043098;28;61874;-74
2022/05/27 03:24:52;;;;;;;;;0.50;0.00;;;;;;;;5042637;28;63901;-74
2022/05/27 03:27:21;;;;;;;;;0.00;0.00;;;;;;;;5059025;28;61778;-74
2022/05/27 03:29:46;;;;;;;;;0.00;0.00;;;;;;;;5059995;28;61830;-75
2022/05/27 03:32:20;;;;;;;;;3.00;1.00;;;;;;;;5042926;28;62096;-75
2022/05/27 03:34:53;;;;;;;;;3.00;1.00;;;;;;;;5121776;27;62653;-74
2022/05/27 03:37:21;;;;;;;;;1.00;1.00;;;;;;;;5123039;27;62157;-74
2022/05/27 03:39:58;;;;;;;;;1.25;1.25;;;;;;;;5122263;27;61937;-75
2022/05/27 03:42:24;;;;;;;;;0.25;0.00;;;;;;;;5122949;27;62017;-75
2022/05/27 03:44:57;;;;;;;;;0.00;0.00;;;;;;;;5123060;27;61736;-75
2022/05/27 03:47:22;;;;;;;;;0.75;0.25;;;;;;;;5123439;27;61962;-74
2022/05/27 03:49:47;;;;;;;;;0.00;0.00;;;;;;;;5123508;27;61790;-75
2022/05/27 03:52:21;;;;;;;;;0.00;0.00;;;;;;;;5121674;27;61732;-74
2022/05/27 03:54:46;;;;;;;;;1.50;1.50;;;;;;;;5123789;27;61938;-74
2022/05/27 03:57:12;;;;;;;;;3.25;0.50;;;;;;;;5124671;27;62146;-74
2022/05/27 03:59:37;;;;;;;;;1.00;1.00;;;;;;;;5127151;27;62026;-74
2022/05/27 04:02:02;;;;;;;;;0.25;0.25;;;;;;;;5127063;27;61756;-74
2022/05/27 04:04:28;;;;;;;;;1.25;1.25;;;;;;;;5124913;27;64817;-74
2022/05/27 04:06:54;;;;;;;;;6.00;0.00;;;;;;;;5126938;27;61984;-74
2022/05/27 04:09:20;;;;;;;;;2.00;1.00;;;;;;;;5125350;27;61973;-74
2022/05/27 04:11:45;;;;;;;;;1.00;1.00;;;;;;;;5124829;27;61976;-74
2022/05/27 04:14:11;;;;;;;;;0.00;0.00;;;;;;;;5126150;27;62314;-75
2022/05/27 04:16:36;;;;;;;;;3.00;1.50;;;;;;;;5126550;27;61720;-74
2022/05/27 04:19:02;;;;;;;;;3.25;1.00;;;;;;;;5125560;27;61909;-74
2022/05/27 04:21:27;;;;;;;;;2.75;1.75;;;;;;;;5126819;27;61976;-74
2022/05/27 04:23:52;;;;;;;;;1.25;1.00;;;;;;;;5126187;27;62117;-74
2022/05/27 04:26:18;;;;;;;;;1.75;1.50;;;;;;;;5126245;27;61670;-75
2022/05/27 04:28:44;;;;;;;;;2.50;2.50;;;;;;;;5125319;27;61841;-74
2022/05/27 04:31:10;;;;;;;;;1.00;1.00;;;;;;;;5125090;27;61931;-74
2022/05/27 04:33:35;;;;;;;;;1.50;1.00;;;;;;;;5125962;27;63003;-74
2022/05/27 04:36:01;;;;;;;;;2.75;1.00;;;;;;;;5126574;27;61788;-74
2022/05/27 04:38:26;;;;;;;;;4.00;1.00;;;;;;;;5126132;27;62020;-74
2022/05/27 04:40:51;;;;;;;;;1.25;1.25;;;;;;;;5125078;27;61795;-74
2022/05/27 04:43:17;;;;;;;;;1.25;1.25;;;;;;;;5125312;27;62653;-74
2022/05/27 04:45:42;;;;;;;;;2.00;2.00;;;;;;;;5126554;27;62174;-75
2022/05/27 04:48:08;;;;;;;;;1.75;1.00;;;;;;;;5126370;27;61962;-74
2022/05/27 04:50:33;;;;;;;;;1.00;1.00;;;;;;;;5126237;27;61803;-74
2022/05/27 04:52:59;;;;;;;;;4.75;1.00;;;;;;;;5123858;27;63761;-74
2022/05/27 04:55:24;;;;;;;;;2.00;1.00;;;;;;;;5124432;27;61958;-74
2022/05/27 04:57:51;;;;;;;;;2.50;1.00;;;;;;;;5125805;27;62012;-74
2022/05/27 05:00:21;;;;;;;;;2.00;1.00;;;;;;;;5126347;27;61624;-74
2022/05/27 05:02:47;;;;;;;;;1.25;1.25;;;;;;;;5125573;27;62526;-74
2022/05/27 05:05:14;;;;;;;;;1.25;1.25;;;;;;;;5125797;27;61967;-74
2022/05/27 05:07:40;;;;;;;;;1.00;1.00;;;;;;;;5125135;27;61776;-74
2022/05/27 05:10:07;;;;;;;;;7.75;3.50;;;;;;;;5126140;27;62091;-74
2022/05/27 05:12:33;;;;;;;;;2.75;1.00;;;;;;;;5124444;27;63295;-74
2022/05/27 05:14:58;;;;;;;;;2.00;2.00;;;;;;;;5124506;27;61657;-74
2022/05/27 05:17:24;;;;;;;;;2.00;2.00;;;;;;;;5125577;27;61688;-74
2022/05/27 05:19:53;;;;;;;;;4.00;2.75;;;;;;;;5126089;27;61676;-74
2022/05/27 05:22:18;;;;;;;;;2.50;1.75;;;;;;;;5124444;27;62477;-74
2022/05/27 05:24:44;;;;;;;;;1.25;1.00;;;;;;;;5125763;27;61969;-75
2022/05/27 05:27:09;;;;;;;;;4.50;4.50;;;;;;;;5125316;27;61918;-75
2022/05/27 05:29:34;;;;;;;;;5.75;3.50;;;;;;;;5125678;27;61803;-74
2022/05/27 05:31:59;;;;;;;;;3.00;2.00;;;;;;;;5124889;27;62815;-74
2022/05/27 05:34:25;;;;;;;;;9.25;6.25;;;;;;;;5125114;27;61694;-74
2022/05/27 05:36:54;;;;;;;;;3.75;3.00;;;;;;;;5123847;27;61809;-75
2022/05/27 05:39:19;;;;;;;;;6.00;5.25;;;;;;;;5125340;27;61713;-74
2022/05/27 05:41:54;;;;;;;;;7.00;6.00;;;;;;;;5124528;27;61786;-74
2022/05/27 05:44:19;;;;;;;;;8.25;7.50;;;;;;;;5123848;27;61892;-75
2022/05/27 05:46:47;;;;;;;;;11.75;6.50;;;;;;;;5125396;27;61900;-74
2022/05/27 05:49:12;;;;;;;;;8.75;4.50;;;;;;;;5125500;27;62344;-74
2022/05/27 05:51:38;;;;;;;;;6.50;4.75;;;;;;;;5122894;27;64571;-74
2022/05/27 05:54:03;;;;;;;;;9.25;8.00;;;;;;;;5125363;27;61843;-74
2022/05/27 05:56:33;;;;;;;;;13.50;8.50;;;;;;;;5123425;27;61763;-74
2022/05/27 05:58:59;;;;;;;;;10.75;5.00;;;;;;;;5125207;27;62150;-74
2022/05/27 06:01:24;;;;;;;;;12.00;7.00;;;;;;;;5124515;27;61986;-74
2022/05/27 06:03:49;;;;;;;;;7.75;6.25;;;;;;;;5125217;27;62157;-74
2022/05/27 06:06:15;;;;;;;;;7.50;5.00;;;;;;;;5124945;27;61839;-74
2022/05/27 06:08:40;;;;;;;;;4.75;3.75;;;;;;;;5124869;27;62604;-74
2022/05/27 06:11:07;;;;;;;;;4.75;3.00;;;;;;;;5124091;27;62792;-74
2022/05/27 06:13:32;;;;;;;;;4.00;3.00;;;;;;;;5124296;27;61815;-75
2022/05/27 06:15:57;;;;;;;;;3.50;3.25;;;;;;;;5123819;27;61943;-74
2022/05/27 06:18:22;;;;;;;;;4.00;3.00;;;;;;;;5124638;27;61892;-74
2022/05/27 06:20:48;;;;;;;;;2.00;2.00;;;;;;;;5124089;27;62002;-74
2022/05/27 06:23:14;;;;;;;;;3.50;2.50;;;;;;;;5124628;27;61892;-75
2022/05/27 06:25:40;;;;;;;;;1.25;1.00;;;;;;;;5124581;27;62081;-74
2022/05/27 06:36:18;;;;;;;;;4.50;3.00;;;;;;;;5124230;27;61823;-75
2022/05/27 06:38:43;;;;;;;;;4.75;3.25;;;;;;;;5122955;27;62062;-75
2022/05/27 06:41:08;;;;;;;;;3.00;3.00;;;;;;;;5123908;27;62864;-74
2022/05/27 06:43:34;;;;;;;;;3.50;2.50;;;;;;;;5124167;27;62022;-74
2022/05/27 06:46:00;;;;;;;;;8.75;5.50;;;;;;;;5124619;27;61910;-74
2022/05/27 06:48:25;;;;;;;;;3.25;3.25;;;;;;;;5123162;27;62187;-74
2022/05/27 06:50:51;;;;;;;;;6.75;4.25;;;;;;;;5123475;27;61728;-74
2022/05/27 06:53:16;;;;;;;;;4.00;3.00;;;;;;;;5124010;27;61738;-74
2022/05/27 06:55:46;;;;;;;;;4.50;3.00;;;;;;;;5124141;27;61954;-74
2022/05/27 06:58:12;;;;;;;;;5.25;5.00;;;;;;;;5122894;27;61730;-74
2022/05/27 07:00:37;;;;;;;;;5.25;4.00;;;;;;;;5123718;27;63225;-74
2022/05/27 07:03:04;;;;;;;;;4.00;4.00;;;;;;;;5122557;27;61871;-75
2022/05/27 07:05:29;;;;;;;;;7.75;6.75;;;;;;;;5124164;27;61922;-75
2022/05/27 07:07:55;;;;;;;;;4.00;4.00;;;;;;;;5124080;27;62058;-74
2022/05/27 07:10:20;;;;;;;;;5.75;3.25;;;;;;;;5123445;27;61850;-75
2022/05/27 07:12:46;;;;;;;;;6.00;5.50;;;;;;;;5122012;27;62445;-75
2022/05/27 07:15:11;;;;;;;;;6.50;4.75;;;;;;;;5124230;27;61921;-75
2022/05/27 07:17:36;;;;;;;;;7.50;6.50;;;;;;;;5124091;27;62072;-74
2022/05/27 07:20:02;;;;;;;;;8.75;5.25;;;;;;;;5123312;27;61864;-74
2022/05/27 07:22:28;;;;;;;;;6.50;5.25;;;;;;;;5123765;27;61832;-74
2022/05/27 07:24:53;;;;;;;;;5.50;4.00;;;;;;;;5123948;27;61705;-74
2022/05/27 07:27:18;;;;;;;;;5.75;5.50;;;;;;;;5123925;27;62227;-74
2022/05/27 07:29:44;;;;;;;;;4.00;4.00;;;;;;;;5120589;27;64708;-75
2022/05/27 07:32:09;;;;;;;;;5.00;5.00;;;;;;;;5123740;27;61835;-75
2022/05/27 07:34:34;;;;;;;;;6.25;4.75;;;;;;;;5123493;27;61733;-75
2022/05/27 07:37:00;;;;;;;;;9.50;4.75;;;;;;;;5123845;27;62022;-74
2022/05/27 07:39:25;;;;;;;;;4.50;3.00;;;;;;;;5123297;27;62757;-74
2022/05/27 07:41:50;;;;;;;;;8.50;7.25;;;;;;;;5123101;27;61824;-74
2022/05/27 07:44:16;;;;;;;;;8.00;4.50;;;;;;;;5122125;27;61818;-75
2022/05/27 07:46:42;;;;;;;;;11.25;5.00;;;;;;;;5123752;27;61861;-74
2022/05/27 07:49:07;;;;;;;;;8.50;6.00;;;;;;;;5121488;27;63793;-75
2022/05/27 07:51:32;;;;;;;;;5.50;3.75;;;;;;;;5123532;27;61890;-75
2022/05/27 07:53:58;;;;;;;;;7.50;5.50;;;;;;;;5121860;27;62155;-74
2022/05/27 07:56:23;;;;;;;;;4.75;4.00;;;;;;;;5123439;27;61831;-74
2022/05/27 07:58:48;;;;;;;;;5.25;4.25;;;;;;;;5122494;27;61810;-74
2022/05/27 08:01:14;;;;;;;;;4.50;4.00;;;;;;;;5123224;27;61887;-75
2022/05/27 08:03:41;;;;;;;;;5.00;3.75;;;;;;;;5123219;27;61827;-75
2022/05/27 08:06:07;;;;;;;;;4.50;3.00;;;;;;;;5123452;27;61738;-75
2022/05/27 08:08:32;;;;;;;;;3.25;2.25;;;;;;;;5122290;27;61874;-75
2022/05/27 08:10:58;;;;;;;;;3.25;3.25;;;;;;;;5122920;27;61752;-75
2022/05/27 08:13:23;;;;;;;;;3.25;2.00;;;;;;;;5122889;27;61774;-75
2022/05/27 08:15:49;;;;;;;;;5.00;2.00;;;;;;;;5121801;27;61788;-75
2022/05/27 08:18:14;;;;;;;;;3.50;2.00;;;;;;;;5122372;27;62014;-75
2022/05/27 08:20:39;;;;;;;;;4.75;2.00;;;;;;;;5123204;27;61757;-75
2022/05/27 08:23:05;;;;;;;;;5.25;3.00;;;;;;;;5122910;27;62642;-75
2022/05/27 08:25:31;;;;;;;;;2.00;2.00;;;;;;;;5123369;27;61732;-74
2022/05/27 08:27:56;;;;;;;;;5.50;1.50;;;;;;;;5120706;27;65081;-74
2022/05/27 08:30:29;;;;;;;;;3.25;1.00;;;;;;;;5123052;27;61824;-74
2022/05/27 08:32:55;;;;;;;;;4.50;3.50;;;;;;;;5121457;27;61831;-74
2022/05/27 08:38:10;;;;;;;;;2.75;2.00;;;;;;;;5121889;27;61720;-74
2022/05/27 08:40:58;;;;;;;;;5.00;2.25;;;;;;;;5123502;27;61760;-74
2022/05/27 08:43:29;;;;;;;;;1.25;1.00;;;;;;;;5116747;27;61758;-74
2022/05/27 08:46:14;;;;;;;;;1.25;1.25;;;;;;;;5126292;27;61720;-74
2022/05/27 08:48:41;;;;;;;;;2.00;2.00;;;;;;;;5125792;27;61906;-75
2022/05/27 08:51:16;;;;;;;;;2.00;2.00;;;;;;;;5124645;27;61910;-75
2022/05/27 08:53:46;;;;;;;;;5.00;4.00;;;;;;;;5125974;27;61778;-75
2022/05/27 08:59:27;;;;;;;;;3.00;2.00;;;;;;;;5125226;27;61923;-74
2022/05/27 09:01:54;;;;;;;;;4.25;3.25;;;;;;;;5125830;27;61813;-75
2022/05/27 09:04:46;;;;;;;;;1.25;0.50;;;;;;;;5126279;27;61749;-75
2022/05/27 09:07:33;;;;;;;;;3.00;2.00;;;;;;;;5126033;27;61693;-74
2022/05/27 09:09:59;;;;;;;;;2.25;2.00;;;;;;;;5125384;27;62020;-74
2022/05/27 09:12:44;;;;;;;;;4.00;2.00;;;;;;;;5125306;27;62065;-75
2022/05/27 09:15:21;;;;;;;;;3.25;3.00;;;;;;;;5125824;27;61797;-74
2022/05/27 09:18:02;;;;;;;;;2.00;2.00;;;;;;;;5126027;27;62180;-75
2022/05/27 09:20:45;;;;;;;;;4.75;2.00;;;;;;;;5125552;27;62094;-75
2022/05/27 09:23:11;;;;;;;;;4.75;4.00;;;;;;;;5125606;27;61848;-75
2022/05/27 09:25:59;;;;;;;;;3.25;1.75;;;;;;;;5125865;27;61791;-74
2022/05/27 09:28:31;;;;;;;;;1.25;1.25;;;;;;;;5095564;27;61957;-74
2022/05/27 09:30:58;;;;;;;;;5.00;2.50;;;;;;;;5124888;27;61965;-74
2022/05/27 09:33:26;;;;;;;;;3.75;3.75;;;;;;;;5125746;27;61903;-75
2022/05/27 09:36:08;;;;;;;;;4.50;3.75;;;;;;;;5125401;27;62650;-74
2022/05/27 09:38:34;;;;;;;;;3.75;3.75;;;;;;;;5125699;27;61759;-75
2022/05/27 09:41:08;;;;;;;;;2.25;2.00;;;;;;;;5123336;27;63748;-75
2022/05/27 09:43:39;;;;;;;;;1.50;1.50;;;;;;;;5125196;27;62317;-74
2022/05/27 09:46:11;;;;;;;;;5.00;3.00;;;;;;;;5125355;27;61790;-74
2022/05/27 09:48:36;;;;;;;;;1.00;1.00;;;;;;;;5125624;27;61783;-74
2022/05/27 09:51:03;;;;;;;;;1.75;1.75;;;;;;;;5125002;27;62022;-74
2022/05/27 09:53:36;;;;;;;;;2.00;2.00;;;;;;;;5124202;27;62274;-74
2022/05/27 09:56:04;;;;;;;;;2.00;2.00;;;;;;;;5125241;27;61732;-75
2022/05/27 09:58:34;;;;;;;;;2.00;2.00;;;;;;;;5123325;27;61751;-74
2022/05/27 10:01:17;;;;;;;;;3.25;3.25;;;;;;;;5124589;27;63691;-75
2022/05/27 10:03:43;;;;;;;;;3.00;3.00;;;;;;;;5125002;27;61820;-75
2022/05/27 10:06:10;;;;;;;;;4.00;3.00;;;;;;;;5125006;27;61767;-75
2022/05/27 10:08:35;;;;;;;;;2.00;2.00;;;;;;;;5125148;27;61901;-75
2022/05/27 10:11:12;;;;;;;;;1.50;1.50;;;;;;;;5122832;27;62914;-75
2022/05/27 10:13:41;;;;;;;;;3.50;2.75;;;;;;;;5124201;27;61883;-75
2022/05/27 10:16:15;;;;;;;;;5.00;2.00;;;;;;;;5123698;27;61792;-75
2022/05/27 10:18:41;;;;;;;;;3.00;1.75;;;;;;;;5124913;27;61705;-75
2022/05/27 10:21:10;;;;;;;;;3.00;2.00;;;;;;;;5123924;27;62843;-75
2022/05/27 10:23:36;;;;;;;;;2.00;2.00;;;;;;;;5125112;27;61939;-75
2022/05/27 10:26:21;;;;;;;;;3.25;1.00;;;;;;;;5124800;27;61817;-75
2022/05/27 10:28:59;;;;;;;;;5.00;2.00;;;;;;;;5124735;27;62014;-75
2022/05/27 10:31:24;;;;;;;;;4.00;4.00;;;;;;;;5123962;27;61813;-75
2022/05/27 10:33:50;;;;;;;;;3.50;2.00;;;;;;;;5124731;27;61826;-74
2022/05/27 10:36:33;;;;;;;;;2.50;1.75;;;;;;;;5124679;27;61870;-74
2022/05/27 10:39:25;;;;;;;;;3.75;2.00;;;;;;;;5123221;27;61924;-74
2022/05/27 10:41:58;;;;;;;;;1.00;1.00;;;;;;;;5117882;27;63550;-75
2022/05/27 10:44:26;;;;;;;;;5.25;3.00;;;;;;;;5124160;27;62107;-75
2022/05/27 10:46:53;;;;;;;;;4.25;2.00;;;;;;;;5123325;27;62075;-75
2022/05/27 10:49:39;;;;;;;;;5.25;3.75;;;;;;;;5124594;27;62102;-75
2022/05/27 10:52:20;;;;;;;;;3.50;3.50;;;;;;;;5123999;27;62761;-74
2022/05/27 10:55:04;;;;;;;;;2.75;1.50;;;;;;;;5121942;27;61803;-75
2022/05/27 11:03:37;;;;;;;;;1.75;1.75;;;;;;;;5123698;27;62359;-75
2022/05/27 11:06:21;;;;;;;;;3.00;1.25;;;;;;;;5124291;27;61714;-75
2022/05/27 11:08:53;;;;;;;;;4.25;2.50;;;;;;;;5124322;27;61699;-75
2022/05/27 11:11:25;;;;;;;;;3.50;2.50;;;;;;;;5124283;27;61926;-75
2022/05/27 11:16:47;;;;;;;;;2.00;2.00;;;;;;;;5124285;27;61683;-75
2022/05/27 11:19:24;;;;;;;;;4.25;3.75;;;;;;;;5122696;27;62011;-75
2022/05/27 11:21:58;;;;;;;;;4.75;3.25;;;;;;;;5124019;27;61679;-75
2022/05/27 11:24:50;;;;;;;;;2.75;2.75;;;;;;;;5121914;27;63603;-75
2022/05/27 11:27:24;;;;;;;;;2.00;2.00;;;;;;;;5098768;27;62179;-75
2022/05/27 11:30:03;;;;;;;;;7.50;3.75;;;;;;;;5123960;27;61798;-74
2022/05/27 11:32:47;;;;;;;;;4.00;2.00;;;;;;;;5122363;27;62192;-75
2022/05/27 11:35:21;;;;;;;;;8.00;8.00;;;;;;;;5123357;27;61744;-75
2022/05/27 11:37:52;;;;;;;;;7.50;6.00;;;;;;;;5123517;27;61833;-75
2022/05/27 11:40:22;;;;;;;;;6.25;4.75;;;;;;;;5123383;27;62014;-75
2022/05/27 11:42:48;;;;;;;;;3.00;3.00;;;;;;;;5123799;27;61883;-75
2022/05/27 11:45:21;;;;;;;;;2.00;2.00;;;;;;;;5123179;27;61715;-75
2022/05/27 11:48:06;;;;;;;;;2.00;0.75;;;;;;;;5123849;27;62129;-75
2022/05/27 11:50:50;;;;;;;;;1.00;1.00;;;;;;;;5122074;27;61794;-75
2022/05/27 11:53:16;;;;;;;;;2.50;2.00;;;;;;;;5123402;27;61851;-75
2022/05/27 11:55:47;;;;;;;;;2.25;1.75;;;;;;;;5122909;27;61811;-75
2022/05/27 11:58:18;;;;;;;;;2.00;2.00;;;;;;;;5123460;27;61780;-75
2022/05/27 12:01:03;;;;;;;;;1.00;1.00;;;;;;;;5123767;27;61815;-75
2022/05/27 12:03:47;;;;;;;;;21.25;18.75;;;;;;;;5122706;27;61741;-75
2022/05/27 12:06:15;;;;;;;;;5.00;5.00;;;;;;;;5123027;27;61927;-75
2022/05/27 12:08:42;;;;;;;;;4.25;3.50;;;;;;;;5122868;27;61804;-75
2022/05/27 12:11:14;;;;;;;;;6.50;6.50;;;;;;;;5123430;27;62049;-75
2022/05/27 12:13:49;;;;;;;;;7.00;7.00;;;;;;;;5122907;27;61710;-75
2022/05/27 12:16:16;;;;;;;;;12.50;8.00;;;;;;;;5124499;27;63237;-75
2022/05/27 12:18:44;;;;;;;;;3.25;2.50;;;;;;;;5126715;27;61703;-75
2022/05/27 12:21:12;;;;;;;;;0.50;0.50;;;;;;;;5125570;27;61886;-75
2022/05/27 12:23:40;;;;;;;;;4.00;2.00;;;;;;;;5126910;27;61743;-75
2022/05/27 12:26:05;;;;;;;;;4.75;2.00;;;;;;;;5126266;27;62818;-75
2022/05/27 12:28:33;;;;;;;;;1.25;1.25;;;;;;;;5124730;27;62006;-75
2022/05/27 12:31:00;;;;;;;;;1.33;0.00;;;;;;;;5127045;27;61718;-75
2022/05/27 12:33:26;;;;;;;;;2.00;0.00;;;;;;;;5126769;27;61694;-75
2022/05/27 12:35:59;;;;;;;;;1.00;1.00;;;;;;;;5126150;27;61664;-75
2022/05/27 12:38:26;;;;;;;;;1.33;1.00;;;;;;;;5125916;27;62022;-75
2022/05/27 12:40:53;;;;;;;;;0.33;0.33;;;;;;;;5125355;27;61841;-75
2022/05/27 12:43:29;;;;;;;;;0.33;0.33;;;;;;;;5126511;27;62067;-75
2022/05/27 12:46:15;;;;;;;;;0.00;0.00;;;;;;;;5126198;27;61703;-75
2022/05/27 12:48:44;;;;;;;;;1.00;1.00;;;;;;;;5115140;27;62354;-74
2022/05/27 12:51:16;;;;;;;;;0.67;0.67;;;;;;;;5125142;27;61913;-75
2022/05/27 12:53:44;;;;;;;;;0.00;0.00;;;;;;;;5125908;27;61811;-75
2022/05/27 13:02:21;;;;;;;;;0.67;0.67;;;;;;;;5126280;27;61783;-74
2022/05/27 13:04:54;;;;;;;;;1.00;1.00;;;;;;;;5126486;27;61752;-75
2022/05/27 13:07:28;;;;;;;;;1.00;1.00;;;;;;;;5125092;27;61993;-75
2022/05/27 13:09:54;;;;;;;;;1.00;1.00;;;;;;;;5124877;27;61934;-75
2022/05/27 13:12:38;;;;;;;;;0.00;0.00;;;;;;;;5125696;27;61905;-75
2022/05/27 13:15:09;;;;;;;;;0.00;0.00;;;;;;;;5126405;27;62055;-75
2022/05/27 13:17:35;;;;;;;;;0.67;0.67;;;;;;;;5125293;27;61918;-75
2022/05/27 13:20:04;;;;;;;;;0.00;0.00;;;;;;;;5124731;27;61844;-75
2022/05/27 13:22:54;;;;;;;;;1.33;0.33;;;;;;;;5125754;27;62045;-75
2022/05/27 13:25:19;;;;;;;;;0.00;0.00;;;;;;;;5126038;27;61780;-75
2022/05/27 13:27:46;;;;;;;;;0.00;0.00;;;;;;;;5123250;27;63764;-75
2022/05/27 13:30:14;;;;;;;;;0.00;0.00;;;;;;;;5126083;27;61704;-75
2022/05/27 13:32:52;;;;;;;;;0.00;0.00;;;;;;;;5124333;27;61837;-75
2022/05/27 13:35:19;;;;;;;;;0.67;0.00;;;;;;;;5125944;27;61894;-75
2022/05/27 13:37:56;;;;;;;;;0.00;0.00;;;;;;;;5124704;27;62676;-75
2022/05/27 13:40:27;;;;;;;;;0.00;0.00;;;;;;;;5125671;27;61787;-76
2022/05/27 13:43:13;;;;;;;;;0.00;0.00;;;;;;;;5125171;27;61819;-75
2022/05/27 13:45:50;;;;;;;;;0.00;0.00;;;;;;;;5125162;27;61895;-75
2022/05/27 13:48:15;;;;;;;;;0.00;0.00;;;;;;;;5123650;27;62801;-75
2022/05/27 13:50:41;;;;;;;;;0.00;0.00;;;;;;;;5125267;27;61731;-75
2022/05/27 13:53:19;;;;;;;;;0.00;0.00;;;;;;;;5125158;27;61853;-75
2022/05/27 13:55:45;;;;;;;;;0.00;0.00;;;;;;;;5125687;27;61837;-75
2022/05/27 13:58:11;;;;;;;;;1.33;0.00;;;;;;;;5123079;27;63687;-76
2022/05/27 14:00:38;;;;;;;;;0.00;0.00;;;;;;;;5125356;27;61923;-75
2022/05/27 14:03:04;;;;;;;;;0.00;0.00;;;;;;;;5125342;27;61697;-75
2022/05/27 14:05:30;;;;;;;;;0.00;0.00;;;;;;;;5125511;27;61826;-76
2022/05/27 14:07:59;;;;;;;;;0.00;0.00;;;;;;;;5123002;27;63410;-76
2022/05/27 14:10:27;;;;;;;;;1.00;0.00;;;;;;;;5125103;27;61737;-75
2022/05/27 14:12:54;;;;;;;;;0.00;0.00;;;;;;;;5123210;27;62009;-76
2022/05/27 14:15:26;;;;;;;;;0.00;0.00;;;;;;;;5124191;27;62076;-75
2022/05/27 14:17:52;;;;;;;;;0.00;0.00;;;;;;;;5122858;27;64767;-76
2022/05/27 14:20:27;;;;;;;;;0.00;0.00;;;;;;;;5124920;27;61859;-75
2022/05/27 14:22:54;;;;;;;;;0.00;0.00;;;;;;;;5125045;27;61751;-76
2022/05/27 14:25:34;;;;;;;;;0.00;0.00;;;;;;;;5123846;27;61760;-76
2022/05/27 14:28:08;;;;;;;;;0.00;0.00;;;;;;;;5122457;27;63741;-75
2022/05/27 14:30:39;;;;;;;;;0.00;0.00;;;;;;;;5124953;27;61831;-76
2022/05/27 14:33:19;;;;;;;;;2.00;0.00;;;;;;;;5124854;27;61774;-76
2022/05/27 14:35:45;;;;;;;;;0.33;0.00;;;;;;;;5124898;27;62031;-76
2022/05/27 14:38:13;;;;;;;;;0.00;0.00;;;;;;;;5123373;27;61806;-75
2022/05/27 14:40:42;;;;;;;;;0.00;0.00;;;;;;;;5124807;27;61725;-76
2022/05/27 14:43:21;;;;;;;;;0.00;0.00;;;;;;;;5122695;27;61831;-76
2022/05/27 14:46:11;;;;;;;;;0.00;0.00;;;;;;;;5124857;27;61898;-76
2022/05/27 14:48:37;;;;;;;;;0.00;0.00;;;;;;;;5115665;27;62465;-76
2022/05/27 14:51:20;;;;;;;;;0.00;0.00;;;;;;;;5124446;27;61864;-76
2022/05/27 14:53:47;;;;;;;;;1.00;0.67;;;;;;;;5124199;27;61896;-75
2022/05/27 14:56:17;;;;;;;;;0.00;0.00;;;;;;;;5124856;27;61733;-75
2022/05/27 14:58:44;;;;;;;;;0.00;0.00;;;;;;;;5122062;27;63994;-75
2022/05/27 15:01:15;;;;;;;;;2.00;1.00;;;;;;;;5124556;27;61722;-75
2022/05/27 15:03:41;;;;;;;;;0.00;0.00;;;;;;;;5124171;27;61787;-75
2022/05/27 15:06:07;;;;;;;;;1.00;1.00;;;;;;;;5124384;27;61818;-75
2022/05/27 15:08:34;;;;;;;;;1.33;0.00;;;;;;;;5123683;27;62754;-75
2022/05/27 15:11:12;;;;;;;;;1.00;1.00;;;;;;;;5124090;27;61728;-75
2022/05/27 15:13:43;;;;;;;;;1.00;1.00;;;;;;;;5123502;27;61855;-75
2022/05/27 15:16:09;;;;;;;;;1.67;1.67;;;;;;;;5122893;27;61711;-75
2022/05/27 15:18:40;;;;;;;;;3.00;1.67;;;;;;;;5123140;27;61725;-75
2022/05/27 15:21:09;;;;;;;;;1.67;1.67;;;;;;;;5122763;27;61877;-75
2022/05/27 15:23:38;;;;;;;;;0.00;0.00;;;;;;;;5123925;27;61890;-76
2022/05/27 15:34:28;;;;;;;;;0.00;0.00;;;;;;;;5124094;27;61767;-76
2022/05/27 15:36:56;;;;;;;;;1.33;0.33;;;;;;;;5122745;27;62048;-76
2022/05/27 15:39:21;;;;;;;;;0.00;0.00;;;;;;;;5123021;27;61828;-76
2022/05/27 15:41:47;;;;;;;;;0.00;0.00;;;;;;;;5123614;27;61850;-76